createdAt,value
2018-04-18T00:01:38.415Z,11.60
2018-04-18T00:04:04.696Z,11.60
2018-04-18T00:06:30.912Z,11.70
2018-04-18T00:08:57.895Z,11.60
2018-04-18T00:11:24.110Z,11.60
2018-04-18T00:13:51.043Z,11.60
2018-04-18T00:16:17.219Z,11.60
2018-04-18T00:18:44.194Z,11.60
2018-04-18T00:21:10.415Z,11.50
2018-04-18T00:23:37.799Z,11.50
2018-04-18T00:26:03.990Z,11.50
2018-04-18T00:28:30.232Z,11.50
2018-04-18T00:30:56.449Z,11.50
2018-04-18T00:33:22.672Z,11.40
2018-04-18T00:35:48.916Z,11.50
2018-04-18T00:38:15.148Z,11.40
2018-04-18T00:40:41.389Z,11.40
2018-04-18T00:43:07.634Z,11.40
2018-04-18T00:45:33.838Z,11.40
2018-04-18T00:48:00.093Z,11.40
2018-04-18T00:50:26.288Z,11.40
2018-04-18T00:52:52.512Z,11.30
2018-04-18T00:55:18.690Z,11.30
2018-04-18T00:57:44.890Z,11.30
2018-04-18T01:00:11.102Z,11.20
2018-04-18T01:02:38.055Z,11.30
2018-04-18T01:05:04.292Z,11.20
2018-04-18T01:07:31.247Z,11.20
2018-04-18T01:09:58.196Z,11.20
2018-04-18T01:12:24.389Z,11.20
2018-04-18T01:14:50.600Z,11.20
2018-04-18T01:17:16.789Z,11.20
2018-04-18T01:19:43.013Z,11.20
2018-04-18T01:22:09.194Z,11.10
2018-04-18T01:24:35.404Z,11.10
2018-04-18T01:27:01.612Z,11.10
2018-04-18T01:29:27.847Z,11.10
2018-04-18T01:31:54.052Z,11.00
2018-04-18T01:34:20.287Z,11.00
2018-04-18T01:36:46.498Z,11.00
2018-04-18T01:39:12.687Z,11.00
2018-04-18T01:41:38.894Z,11.00
2018-04-18T01:44:05.096Z,11.00
2018-04-18T01:46:31.337Z,10.90
2018-04-18T01:49:09.759Z,10.90
2018-04-18T01:51:36.683Z,10.80
2018-04-18T01:54:02.872Z,10.80
2018-04-18T01:56:29.095Z,10.80
2018-04-18T01:58:56.024Z,10.70
2018-04-18T02:01:22.223Z,10.70
2018-04-18T02:03:48.400Z,10.70
2018-04-18T02:06:14.568Z,10.70
2018-04-18T02:08:42.346Z,10.70
2018-04-18T02:11:08.519Z,10.70
2018-04-18T02:13:34.770Z,10.70
2018-04-18T02:16:00.942Z,10.70
2018-04-18T02:18:27.148Z,10.70
2018-04-18T02:20:53.418Z,10.70
2018-04-18T02:23:19.636Z,10.70
2018-04-18T02:25:45.815Z,10.70
2018-04-18T02:28:12.031Z,10.70
2018-04-18T02:30:38.196Z,10.70
2018-04-18T02:33:04.393Z,10.70
2018-04-18T02:35:30.618Z,10.60
2018-04-18T02:37:56.825Z,10.50
2018-04-18T02:40:23.751Z,10.50
2018-04-18T02:42:49.895Z,10.50
2018-04-18T02:45:16.088Z,10.50
2018-04-18T02:47:42.309Z,10.50
2018-04-18T02:50:08.542Z,10.50
2018-04-18T02:52:34.730Z,10.40
2018-04-18T02:55:00.954Z,10.30
2018-04-18T02:57:27.126Z,10.30
2018-04-18T02:59:53.339Z,10.30
2018-04-18T03:02:19.543Z,10.20
2018-04-18T03:04:46.479Z,10.20
2018-04-18T03:07:12.662Z,10.10
2018-04-18T03:09:38.862Z,10.10
2018-04-18T03:12:05.060Z,10.10
2018-04-18T03:14:31.267Z,10.10
2018-04-18T03:16:57.457Z,10.10
2018-04-18T03:19:23.675Z,10.10
2018-04-18T03:21:49.861Z,10.00
2018-04-18T03:24:16.065Z,10.10
2018-04-18T03:26:42.232Z,10.10
2018-04-18T03:29:08.432Z,10.10
2018-04-18T03:31:34.614Z,10.00
2018-04-18T03:34:00.803Z,10.00
2018-04-18T03:36:26.966Z,10.00
2018-04-18T03:38:53.183Z,10.00
2018-04-18T03:41:21.109Z,10.00
2018-04-18T03:43:47.303Z,10.00
2018-04-18T03:46:13.518Z,9.90
2018-04-18T03:48:39.735Z,9.90
2018-04-18T03:51:05.905Z,9.90
2018-04-18T03:53:32.873Z,9.90
2018-04-18T03:55:59.775Z,9.90
2018-04-18T03:58:26.007Z,9.90
2018-04-18T04:00:52.176Z,9.90
2018-04-18T04:03:18.372Z,9.90
2018-04-18T04:05:44.585Z,9.90
2018-04-18T04:08:10.795Z,10.00
2018-04-18T04:10:37.005Z,10.00
2018-04-18T04:13:03.168Z,9.90
2018-04-18T04:15:29.384Z,10.00
2018-04-18T04:18:08.646Z,9.90
2018-04-18T04:20:47.139Z,9.90
2018-04-18T04:23:26.366Z,9.80
2018-04-18T04:25:52.567Z,9.80
2018-04-18T04:28:18.738Z,9.80
2018-04-18T04:30:44.914Z,9.80
2018-04-18T04:33:12.786Z,9.70
2018-04-18T04:35:38.974Z,9.70
2018-04-18T04:38:05.135Z,9.70
2018-04-18T04:40:31.367Z,9.70
2018-04-18T04:42:57.552Z,9.70
2018-04-18T04:45:23.771Z,9.70
2018-04-18T04:47:50.381Z,9.80
2018-04-18T04:50:16.619Z,9.70
2018-04-18T04:52:44.810Z,9.70
2018-04-18T04:55:11.009Z,9.80
2018-04-18T04:57:37.178Z,9.70
2018-04-18T05:00:03.412Z,9.80
2018-04-18T05:02:29.651Z,9.80
2018-04-18T05:04:55.848Z,9.90
2018-04-18T05:07:22.067Z,10.00
2018-04-18T05:09:48.262Z,10.00
2018-04-18T05:12:14.540Z,10.00
2018-04-18T05:14:40.824Z,10.10
2018-04-18T05:17:07.745Z,10.20
2018-04-18T05:19:35.031Z,10.20
2018-04-18T05:22:01.243Z,10.20
2018-04-18T05:24:27.531Z,10.30
2018-04-18T05:26:54.716Z,10.30
2018-04-18T05:29:20.931Z,10.30
2018-04-18T05:31:51.925Z,10.40
2018-04-18T05:34:18.499Z,10.40
2018-04-18T05:36:47.930Z,10.50
2018-04-18T05:39:28.636Z,10.60
2018-04-18T05:41:59.383Z,10.70
2018-04-18T05:44:28.944Z,11.00
2018-04-18T05:47:10.127Z,11.20
2018-04-18T05:52:28.883Z,11.70
2018-04-18T05:54:58.188Z,11.80
2018-04-18T05:57:28.515Z,11.90
2018-04-18T05:59:58.993Z,11.90
2018-04-18T06:02:29.995Z,12.30
2018-04-18T06:04:59.058Z,12.30
2018-04-18T06:07:31.674Z,12.40
2018-04-18T06:09:58.849Z,12.40
2018-04-18T06:12:31.942Z,12.40
2018-04-18T06:14:59.171Z,12.40
2018-04-18T06:17:29.047Z,12.40
2018-04-18T06:19:55.401Z,12.40
2018-04-18T06:22:29.236Z,12.50
2018-04-18T06:24:58.609Z,12.50
2018-04-18T06:27:29.796Z,12.70
2018-04-18T06:29:56.476Z,12.70
2018-04-18T06:32:29.344Z,12.80
2018-04-18T06:34:58.718Z,12.80
2018-04-18T06:37:24.955Z,12.90
2018-04-18T06:39:51.236Z,13.00
2018-04-18T06:42:17.546Z,13.00
2018-04-18T06:44:43.804Z,13.20
2018-04-18T06:47:10.001Z,13.20
2018-04-18T06:49:38.622Z,13.30
2018-04-18T06:52:05.644Z,13.50
2018-04-18T06:54:31.856Z,13.50
2018-04-18T06:56:58.148Z,13.60
2018-04-18T06:59:24.412Z,13.70
2018-04-18T07:01:50.691Z,13.80
2018-04-18T07:04:16.888Z,13.80
2018-04-18T07:06:43.179Z,13.90
2018-04-18T07:09:09.407Z,14.00
2018-04-18T07:11:35.732Z,14.10
2018-04-18T07:14:02.066Z,14.20
2018-04-18T07:16:28.497Z,14.30
2018-04-18T07:18:55.543Z,14.40
2018-04-18T07:21:21.834Z,14.40
2018-04-18T07:23:48.101Z,14.60
2018-04-18T07:26:14.381Z,14.70
2018-04-18T07:28:40.619Z,14.80
2018-04-18T07:31:07.652Z,15.00
2018-04-18T07:33:33.907Z,15.00
2018-04-18T07:36:00.181Z,15.00
2018-04-18T07:38:26.418Z,15.10
2018-04-18T07:40:52.737Z,15.20
2018-04-18T07:43:18.918Z,15.30
2018-04-18T07:45:45.148Z,15.40
2018-04-18T07:48:11.375Z,15.50
2018-04-18T07:50:38.510Z,15.70
2018-04-18T07:53:04.763Z,15.70
2018-04-18T07:55:31.047Z,15.90
2018-04-18T07:57:57.332Z,16.00
2018-04-18T08:00:23.717Z,16.10
2018-04-18T08:02:50.112Z,16.30
2018-04-18T08:05:16.372Z,16.40
2018-04-18T08:07:42.562Z,16.40
2018-04-18T08:10:10.954Z,16.50
2018-04-18T08:12:37.173Z,16.70
2018-04-18T08:15:03.500Z,16.80
2018-04-18T08:17:30.653Z,17.00
2018-04-18T08:19:57.063Z,17.00
2018-04-18T08:22:23.554Z,17.10
2018-04-18T08:24:50.527Z,17.30
2018-04-18T08:27:16.785Z,17.30
2018-04-18T08:29:43.040Z,17.30
2018-04-18T08:32:09.365Z,17.40
2018-04-18T08:34:35.637Z,17.50
2018-04-18T08:37:01.912Z,17.50
2018-04-18T08:39:28.370Z,17.60
2018-04-18T08:41:55.417Z,17.90
2018-04-18T08:44:21.640Z,17.90
2018-04-18T08:46:47.846Z,17.90
2018-04-18T08:49:14.023Z,18.20
2018-04-18T08:51:41.333Z,18.40
2018-04-18T08:54:08.259Z,18.70
2018-04-18T08:56:34.643Z,18.70
2018-04-18T08:59:00.932Z,19.00
2018-04-18T09:01:27.317Z,19.00
2018-04-18T09:03:54.280Z,18.90
2018-04-18T09:06:21.576Z,19.00
2018-04-18T09:08:47.795Z,19.00
2018-04-18T09:11:14.883Z,19.20
2018-04-18T09:13:41.145Z,19.20
2018-04-18T09:16:07.441Z,19.30
2018-04-18T09:18:33.827Z,19.40
2018-04-18T09:21:00.743Z,19.40
2018-04-18T09:23:27.099Z,19.50
2018-04-18T09:25:53.394Z,19.60
2018-04-18T09:28:19.615Z,19.70
2018-04-18T09:30:46.991Z,19.80
2018-04-18T09:33:14.061Z,20.10
2018-04-18T09:35:40.383Z,20.00
2018-04-18T09:38:06.704Z,20.20
2018-04-18T09:40:32.968Z,20.30
2018-04-18T09:42:59.248Z,20.40
2018-04-18T09:45:26.653Z,20.50
2018-04-18T09:47:54.015Z,20.60
2018-04-18T09:50:20.296Z,20.80
2018-04-18T09:52:46.723Z,20.90
2018-04-18T09:55:13.140Z,20.90
2018-04-18T09:57:39.428Z,21.00
2018-04-18T10:00:05.657Z,21.00
2018-04-18T10:02:36.876Z,21.10
2018-04-18T10:05:07.022Z,21.20
2018-04-18T10:07:36.852Z,21.30
2018-04-18T10:10:03.173Z,21.40
2018-04-18T10:12:29.435Z,21.50
2018-04-18T10:14:55.743Z,21.50
2018-04-18T10:17:22.029Z,21.70
2018-04-18T10:19:48.290Z,22.00
2018-04-18T10:22:14.531Z,22.10
2018-04-18T10:24:40.772Z,22.20
2018-04-18T10:27:08.496Z,22.40
2018-04-18T10:29:35.868Z,22.50
2018-04-18T10:32:04.117Z,22.80
2018-04-18T10:34:30.539Z,22.70
2018-04-18T10:36:56.861Z,22.90
2018-04-18T10:39:23.092Z,23.00
2018-04-18T10:41:51.212Z,23.20
2018-04-18T10:44:17.460Z,23.20
2018-04-18T10:46:43.878Z,23.30
2018-04-18T10:49:10.158Z,23.40
2018-04-18T10:51:38.486Z,23.50
2018-04-18T10:54:06.488Z,23.50
2018-04-18T10:56:32.780Z,23.50
2018-04-18T10:58:59.217Z,23.80
2018-04-18T11:01:26.376Z,24.10
2018-04-18T11:03:52.616Z,24.10
2018-04-18T11:06:18.855Z,24.10
2018-04-18T11:08:45.104Z,24.20
2018-04-18T11:11:11.475Z,24.30
2018-04-18T11:13:37.855Z,24.40
2018-04-18T11:16:04.241Z,24.60
2018-04-18T11:18:30.479Z,24.70
2018-04-18T11:20:56.821Z,24.60
2018-04-18T11:23:23.210Z,24.60
2018-04-18T11:25:49.428Z,24.90
2018-04-18T11:28:15.755Z,25.10
2018-04-18T11:30:42.019Z,25.10
2018-04-18T11:33:08.497Z,25.10
2018-04-18T11:35:35.073Z,25.30
2018-04-18T11:38:01.391Z,25.60
2018-04-18T11:40:27.661Z,25.80
2018-04-18T11:42:54.032Z,26.00
2018-04-18T11:45:20.490Z,26.00
2018-04-18T11:47:46.743Z,26.20
2018-04-18T11:50:19.526Z,26.30
2018-04-18T11:52:45.881Z,26.50
2018-04-18T11:55:12.119Z,26.70
2018-04-18T11:57:38.457Z,26.90
2018-04-18T12:00:04.782Z,27.10
2018-04-18T12:02:31.016Z,27.40
2018-04-18T12:04:57.271Z,27.40
2018-04-18T12:07:23.553Z,27.70
2018-04-18T12:09:49.835Z,28.30
2018-04-18T12:12:16.166Z,28.70
2018-04-18T12:14:42.469Z,29.00
2018-04-18T12:17:12.487Z,29.30
2018-04-18T12:19:39.923Z,29.50
2018-04-18T12:22:06.273Z,29.90
2018-04-18T12:24:32.570Z,29.90
2018-04-18T12:26:58.870Z,30.00
2018-04-18T12:29:25.175Z,30.50
2018-04-18T12:31:51.489Z,30.70
2018-04-18T12:34:17.743Z,30.80
2018-04-18T12:36:44.772Z,30.90
2018-04-18T12:39:11.000Z,30.90
2018-04-18T12:41:37.252Z,31.00
2018-04-18T12:44:03.455Z,31.10
2018-04-18T12:46:29.667Z,31.20
2018-04-18T12:48:55.923Z,31.60
2018-04-18T12:51:22.126Z,31.50
2018-04-18T12:53:48.388Z,31.10
2018-04-18T12:56:14.627Z,31.50
2018-04-18T12:58:41.717Z,31.30
2018-04-18T13:01:07.943Z,31.30
2018-04-18T13:03:34.235Z,31.30
2018-04-18T13:06:00.538Z,31.50
2018-04-18T13:08:26.775Z,32.00
2018-04-18T13:10:53.003Z,31.90
2018-04-18T13:13:19.979Z,32.20
2018-04-18T13:15:46.259Z,32.20
2018-04-18T13:18:12.509Z,32.20
2018-04-18T13:45:16.628Z,31.20
2018-04-18T13:47:42.903Z,31.20
2018-04-18T13:50:09.247Z,31.00
2018-04-18T13:52:36.291Z,30.80
2018-04-18T13:55:02.516Z,30.80
2018-04-18T13:57:29.852Z,31.10
2018-04-18T13:59:56.242Z,30.80
2018-04-18T14:02:22.830Z,30.80
2018-04-18T14:04:49.151Z,30.60
2018-04-18T14:07:18.070Z,30.10
2018-04-18T14:09:47.641Z,30.10
2018-04-18T14:12:18.551Z,29.90
2018-04-18T14:14:47.968Z,29.80
2018-04-18T14:17:19.208Z,29.60
2018-04-18T14:19:47.990Z,29.70
2018-04-18T14:22:23.008Z,29.80
2018-04-18T14:24:49.289Z,29.70
2018-04-18T14:27:16.528Z,29.90
2018-04-18T14:29:42.759Z,29.80
2018-04-18T14:32:09.993Z,29.80
2018-04-18T14:34:36.373Z,29.70
2018-04-18T14:37:02.620Z,29.70
2018-04-18T14:39:28.931Z,29.50
2018-04-18T14:41:55.298Z,29.60
2018-04-18T14:44:22.617Z,29.50
2018-04-18T14:46:48.895Z,29.40
2018-04-18T14:49:15.151Z,29.20
2018-04-18T14:51:41.507Z,29.20
2018-04-18T14:54:08.387Z,29.30
2018-04-18T14:56:34.746Z,29.20
2018-04-18T14:59:00.979Z,29.10
2018-04-18T15:01:27.975Z,28.80
2018-04-18T15:03:55.008Z,28.70
2018-04-18T15:06:23.572Z,28.60
2018-04-18T15:08:50.821Z,28.40
2018-04-18T15:11:17.094Z,28.40
2018-04-18T15:13:46.178Z,28.40
2018-04-18T15:16:13.268Z,28.30
2018-04-18T15:18:43.617Z,28.30
2018-04-18T15:21:10.245Z,28.30
2018-04-18T15:26:31.336Z,28.30
2018-04-18T15:29:00.795Z,28.20
2018-04-18T15:31:30.128Z,28.30
2018-04-18T15:33:59.201Z,28.40
2018-04-18T15:36:25.769Z,28.50
2018-04-18T15:38:52.121Z,28.80
2018-04-18T15:43:55.942Z,29.30
2018-04-18T15:46:29.476Z,29.40
2018-04-18T15:48:56.040Z,29.40
2018-04-18T15:51:22.697Z,29.40
2018-04-18T15:54:00.400Z,29.60
2018-04-18T15:56:28.991Z,29.60
2018-04-18T15:58:55.309Z,29.60
2018-04-18T16:01:21.688Z,29.40
2018-04-18T16:03:47.977Z,29.30
2018-04-18T16:06:28.787Z,29.30
2018-04-18T16:08:59.207Z,29.30
2018-04-18T16:11:29.972Z,29.40
2018-04-18T16:13:56.909Z,29.30
2018-04-18T16:16:23.345Z,29.60
2018-04-18T16:18:59.989Z,29.50
2018-04-18T16:21:26.647Z,29.30
2018-04-18T16:24:00.413Z,29.20
2018-04-18T16:26:29.634Z,28.90
2018-04-18T16:28:59.433Z,29.00
2018-04-18T16:31:25.891Z,29.10
2018-04-18T16:33:59.544Z,29.20
2018-04-18T16:36:29.107Z,29.20
2018-04-18T16:38:56.668Z,29.00
2018-04-18T16:41:24.217Z,28.90
2018-04-18T16:43:50.605Z,28.90
2018-04-18T16:46:29.016Z,29.20
2018-04-18T16:49:02.492Z,28.90
2018-04-18T16:51:34.229Z,28.70
2018-04-18T16:54:00.888Z,28.50
2018-04-18T16:56:30.243Z,28.30
2018-04-18T16:58:56.635Z,28.30
2018-04-18T17:01:23.399Z,28.30
2018-04-18T17:03:50.196Z,28.20
2018-04-18T17:06:16.918Z,28.10
2018-04-18T17:08:43.934Z,28.00
2018-04-18T17:11:13.267Z,27.70
2018-04-18T17:16:28.733Z,27.60
2018-04-18T17:18:55.252Z,27.50
2018-04-18T17:21:28.984Z,27.40
2018-04-18T17:23:55.178Z,27.10
2018-04-18T17:26:22.211Z,27.10
2018-04-18T17:28:48.976Z,27.10
2018-04-18T17:31:16.090Z,26.90
2018-04-18T17:33:43.456Z,26.80
2018-04-18T17:36:10.076Z,26.80
2018-04-18T17:38:37.356Z,26.70
2018-04-18T17:41:03.753Z,26.40
2018-04-18T17:43:29.995Z,26.30
2018-04-18T17:45:56.421Z,26.10
2018-04-18T17:48:22.645Z,26.00
2018-04-18T17:50:48.936Z,25.90
2018-04-18T17:53:16.225Z,25.60
2018-04-18T17:55:42.507Z,25.50
2018-04-18T17:58:08.897Z,25.40
2018-04-18T18:00:35.204Z,25.30
2018-04-18T18:05:32.647Z,24.90
2018-04-18T18:07:59.033Z,24.70
2018-04-18T18:10:25.821Z,24.50
2018-04-18T18:13:02.670Z,24.40
2018-04-18T18:15:30.280Z,24.00
2018-04-18T18:17:58.883Z,23.90
2018-04-18T18:20:31.229Z,23.80
2018-04-18T18:23:00.781Z,23.60
2018-04-18T18:25:29.206Z,23.50
2018-04-18T18:28:01.874Z,23.30
2018-04-18T18:30:29.219Z,23.10
2018-04-18T18:33:01.577Z,23.00
2018-04-18T18:35:29.371Z,22.90
2018-04-18T18:37:59.993Z,22.60
2018-04-18T18:40:29.261Z,22.40
2018-04-18T18:42:59.593Z,22.30
2018-04-18T18:45:28.835Z,22.10
2018-04-18T18:47:59.215Z,21.80
2018-04-18T18:50:31.952Z,21.80
2018-04-18T18:52:59.409Z,21.70
2018-04-18T18:55:29.785Z,21.50
2018-04-18T18:57:59.283Z,21.40
2018-04-18T19:03:30.563Z,21.10
2018-04-18T19:06:00.873Z,21.10
2018-04-18T19:08:32.278Z,21.00
2018-04-18T19:10:59.637Z,20.80
2018-04-18T19:13:32.182Z,20.60
2018-04-18T19:15:59.429Z,20.50
2018-04-18T19:18:28.768Z,20.40
2018-04-18T19:21:00.936Z,20.20
2018-04-18T19:23:30.360Z,20.10
2018-04-18T19:25:58.332Z,19.90
2018-04-18T19:28:30.857Z,19.80
2018-04-18T19:31:00.227Z,19.70
2018-04-18T19:33:30.460Z,19.50
2018-04-18T19:35:56.901Z,19.40
2018-04-18T19:38:30.160Z,19.40
2018-04-18T19:40:59.335Z,19.20
2018-04-18T19:43:29.630Z,19.20
2018-04-18T19:45:56.791Z,19.10
2018-04-18T19:48:26.455Z,19.00
2018-04-18T19:50:59.857Z,18.90
2018-04-18T19:53:30.014Z,18.70
2018-04-18T19:55:56.294Z,18.60
2018-04-18T19:58:28.843Z,18.70
2018-04-18T20:00:55.599Z,18.60
2018-04-18T20:03:21.835Z,18.50
2018-04-18T20:05:48.404Z,18.40
2018-04-18T20:08:14.635Z,18.40
2018-04-18T20:10:40.949Z,18.30
2018-04-18T20:13:10.995Z,18.20
2018-04-18T20:15:38.693Z,18.20
2018-04-18T20:18:04.919Z,18.20
2018-04-18T20:20:31.955Z,18.10
2018-04-18T20:23:00.008Z,17.90
2018-04-18T20:25:29.658Z,17.70
2018-04-18T20:27:59.218Z,17.70
2018-04-18T20:30:28.434Z,17.60
2018-04-18T20:32:59.772Z,17.60
2018-04-18T20:35:26.708Z,17.50
2018-04-18T20:37:55.239Z,17.40
2018-04-18T20:40:26.301Z,17.40
2018-04-18T20:42:58.147Z,17.40
2018-04-18T20:45:24.708Z,17.40
2018-04-18T20:48:00.169Z,17.30
2018-04-18T20:50:27.056Z,17.20
2018-04-18T20:52:55.680Z,17.10
2018-04-18T20:55:24.261Z,17.10
2018-04-18T20:57:53.944Z,16.90
2018-04-18T21:00:31.393Z,16.80
2018-04-18T21:02:59.584Z,16.70
2018-04-18T21:05:29.761Z,16.70
2018-04-18T21:07:59.800Z,16.60
2018-04-18T21:10:33.576Z,16.50
2018-04-18T21:12:59.914Z,16.50
2018-04-18T21:15:29.954Z,16.40
2018-04-18T21:18:00.371Z,16.40
2018-04-18T21:20:31.131Z,16.40
2018-04-18T21:22:59.696Z,16.30
2018-04-18T21:25:26.185Z,16.20
2018-04-18T21:27:52.500Z,16.10
2018-04-18T21:30:18.875Z,16.10
2018-04-18T21:32:45.304Z,16.00
2018-04-18T21:35:12.391Z,15.90
2018-04-18T21:37:38.588Z,15.90
2018-04-18T21:40:05.014Z,15.80
2018-04-18T21:42:31.306Z,15.80
2018-04-18T21:44:57.612Z,15.80
2018-04-18T21:47:23.869Z,15.70
2018-04-18T21:49:51.111Z,15.70
2018-04-18T21:52:18.374Z,15.60
2018-04-18T21:54:44.753Z,15.60
2018-04-18T21:57:11.027Z,15.50
2018-04-18T21:59:37.263Z,15.50
2018-04-18T22:02:03.555Z,15.40
2018-04-18T22:04:29.812Z,15.40
2018-04-18T22:06:56.118Z,15.30
2018-04-18T22:09:22.473Z,15.30
2018-04-18T22:11:48.748Z,15.30
2018-04-18T22:16:59.356Z,15.10
2018-04-18T22:19:25.554Z,15.10
2018-04-18T22:21:52.014Z,15.00
2018-04-18T22:27:20.027Z,14.90
2018-04-18T22:29:46.519Z,14.80
2018-04-18T22:32:17.958Z,14.90
2018-04-18T22:34:44.200Z,14.80
2018-04-18T22:37:10.504Z,14.80
2018-04-18T22:39:36.710Z,14.80
2018-04-18T22:42:03.976Z,14.80
2018-04-18T22:44:30.233Z,14.80
2018-04-18T22:46:56.551Z,14.80
2018-04-18T22:49:22.715Z,14.80
2018-04-18T22:51:49.424Z,14.80
2018-04-18T22:54:16.688Z,14.70
2018-04-18T22:56:43.225Z,14.70
2018-04-18T22:59:09.461Z,14.80
2018-04-18T23:01:35.945Z,14.80
2018-04-18T23:04:03.303Z,14.80
2018-04-18T23:06:29.540Z,14.70
2018-04-18T23:08:56.060Z,14.70
2018-04-18T23:11:22.277Z,14.70
2018-04-18T23:13:48.585Z,14.70
2018-04-18T23:16:14.831Z,14.60
2018-04-18T23:18:42.159Z,14.60
2018-04-18T23:21:08.442Z,14.60
2018-04-18T23:23:34.737Z,14.60
2018-04-18T23:26:01.194Z,14.40
2018-04-18T23:28:27.524Z,14.40
2018-04-18T23:30:53.841Z,14.40
2018-04-18T23:33:20.196Z,14.30
2018-04-18T23:35:46.502Z,14.20
2018-04-18T23:38:12.779Z,14.20
2018-04-18T23:40:39.056Z,14.20
2018-04-18T23:43:05.369Z,14.00
2018-04-18T23:45:31.733Z,14.00
2018-04-18T23:47:57.970Z,14.00
2018-04-18T23:50:24.299Z,14.00
2018-04-18T23:52:50.624Z,13.90
2018-04-18T23:55:17.014Z,13.80
2018-04-18T23:57:43.292Z,13.70
